Terminal Aerodrome Forecast
Issued by NWS

Home | Current Version | Previous Version | Text Only | Print | Product List | Glossary On
Versions: 1 2 3 4 5 6 7 8 9 10 11 12 13 14 15 16 17 18 19 20 21
000
FTUS43 KICT 250947 AAB
TAFCNU
TAF AMD
KCNU 250947Z 2510/2606 18007KT 4SM BR OVC003
      TEMPO 2510/2513 1SM BR
     FM251500 17010KT P6SM BKN010
     FM251900 18015G23KT P6SM SCT030=

USA.gov is the U.S. government's official web portal to all federal, state and local government web resources and services.